sensor_id;sensor_type;location;lat;lon;timestamp;P1;durP1;ratioP1;P2;durP2;ratioP2
80565;SDS011;69915;54.862;10.730;2023-10-09T00:01:25;2.15;;;0.60;;
80565;SDS011;69915;54.862;10.730;2023-10-09T00:03:51;2.25;;;0.85;;
80565;SDS011;69915;54.862;10.730;2023-10-09T00:06:21;3.03;;;0.73;;
80565;SDS011;69915;54.862;10.730;2023-10-09T00:09:01;3.80;;;0.82;;
80565;SDS011;69915;54.862;10.730;2023-10-09T00:11:47;0.95;;;0.60;;
80565;SDS011;69915;54.862;10.730;2023-10-09T00:14:13;2.42;;;0.90;;
80565;SDS011;69915;54.862;10.730;2023-10-09T00:16:40;1.48;;;0.52;;
80565;SDS011;69915;54.862;10.730;2023-10-09T00:19:14;3.17;;;0.63;;
80565;SDS011;69915;54.862;10.730;2023-10-09T00:21:45;2.05;;;0.50;;
80565;SDS011;69915;54.862;10.730;2023-10-09T00:24:12;2.30;;;0.63;;
80565;SDS011;69915;54.862;10.730;2023-10-09T00:26:58;3.75;;;0.65;;
80565;SDS011;69915;54.862;10.730;2023-10-09T00:29:37;1.83;;;0.45;;
80565;SDS011;69915;54.862;10.730;2023-10-09T00:32:13;3.33;;;0.57;;
80565;SDS011;69915;54.862;10.730;2023-10-09T00:34:55;1.83;;;0.73;;
80565;SDS011;69915;54.862;10.730;2023-10-09T00:37:24;1.23;;;0.60;;
80565;SDS011;69915;54.862;10.730;2023-10-09T00:39:59;2.65;;;0.73;;
80565;SDS011;69915;54.862;10.730;2023-10-09T00:42:24;1.60;;;0.65;;
80565;SDS011;69915;54.862;10.730;2023-10-09T00:44:55;4.40;;;0.73;;
80565;SDS011;69915;54.862;10.730;2023-10-09T00:47:21;2.25;;;0.77;;
80565;SDS011;69915;54.862;10.730;2023-10-09T00:49:58;1.95;;;0.60;;
80565;SDS011;69915;54.862;10.730;2023-10-09T00:52:35;2.25;;;0.75;;
80565;SDS011;69915;54.862;10.730;2023-10-09T00:55:09;2.63;;;0.90;;
80565;SDS011;69915;54.862;10.730;2023-10-09T00:57:41;1.38;;;0.43;;
80565;SDS011;69915;54.862;10.730;2023-10-09T01:00:15;1.92;;;0.70;;
80565;SDS011;69915;54.862;10.730;2023-10-09T01:02:57;1.35;;;0.57;;
80565;SDS011;69915;54.862;10.730;2023-10-09T01:05:38;1.30;;;0.55;;
80565;SDS011;69915;54.862;10.730;2023-10-09T01:08:09;0.95;;;0.40;;
80565;SDS011;69915;54.862;10.730;2023-10-09T01:10:46;1.48;;;0.57;;
80565;SDS011;69915;54.862;10.730;2023-10-09T01:16:18;2.03;;;0.40;;
80565;SDS011;69915;54.862;10.730;2023-10-09T01:18:48;1.08;;;0.40;;
80565;SDS011;69915;54.862;10.730;2023-10-09T01:26:44;1.15;;;0.40;;
80565;SDS011;69915;54.862;10.730;2023-10-09T01:29:15;1.85;;;0.52;;
80565;SDS011;69915;54.862;10.730;2023-10-09T01:31:48;2.50;;;0.63;;
80565;SDS011;69915;54.862;10.730;2023-10-09T01:34:41;2.83;;;0.80;;
80565;SDS011;69915;54.862;10.730;2023-10-09T01:37:10;2.78;;;0.63;;
80565;SDS011;69915;54.862;10.730;2023-10-09T01:39:56;2.20;;;0.95;;
80565;SDS011;69915;54.862;10.730;2023-10-09T01:42:24;2.25;;;0.55;;
80565;SDS011;69915;54.862;10.730;2023-10-09T01:44:59;2.00;;;0.70;;
80565;SDS011;69915;54.862;10.730;2023-10-09T01:47:47;2.38;;;0.95;;
80565;SDS011;69915;54.862;10.730;2023-10-09T01:50:22;3.72;;;0.60;;
80565;SDS011;69915;54.862;10.730;2023-10-09T01:52:52;1.95;;;0.65;;
80565;SDS011;69915;54.862;10.730;2023-10-09T01:55:17;1.17;;;0.32;;
80565;SDS011;69915;54.862;10.730;2023-10-09T01:58:15;1.35;;;0.52;;
80565;SDS011;69915;54.862;10.730;2023-10-09T02:00:46;1.92;;;0.40;;
80565;SDS011;69915;54.862;10.730;2023-10-09T02:03:22;1.88;;;0.45;;
80565;SDS011;69915;54.862;10.730;2023-10-09T02:05:52;1.05;;;0.40;;
80565;SDS011;69915;54.862;10.730;2023-10-09T02:08:18;1.50;;;0.50;;
80565;SDS011;69915;54.862;10.730;2023-10-09T02:10:51;1.58;;;0.50;;
80565;SDS011;69915;54.862;10.730;2023-10-09T02:13:20;1.48;;;0.70;;
80565;SDS011;69915;54.862;10.730;2023-10-09T02:15:55;1.60;;;0.88;;
80565;SDS011;69915;54.862;10.730;2023-10-09T02:18:23;2.03;;;0.70;;
80565;SDS011;69915;54.862;10.730;2023-10-09T02:20:49;2.60;;;0.63;;
80565;SDS011;69915;54.862;10.730;2023-10-09T02:23:25;1.95;;;0.60;;
80565;SDS011;69915;54.862;10.730;2023-10-09T02:26:11;6.30;;;0.75;;
80565;SDS011;69915;54.862;10.730;2023-10-09T02:28:48;5.20;;;0.70;;
80565;SDS011;69915;54.862;10.730;2023-10-09T02:31:23;1.08;;;0.52;;
80565;SDS011;69915;54.862;10.730;2023-10-09T02:33:51;2.05;;;1.20;;
80565;SDS011;69915;54.862;10.730;2023-10-09T02:36:19;3.08;;;0.80;;
80565;SDS011;69915;54.862;10.730;2023-10-09T02:38:45;6.53;;;0.73;;
80565;SDS011;69915;54.862;10.730;2023-10-09T02:41:14;7.00;;;0.65;;
80565;SDS011;69915;54.862;10.730;2023-10-09T02:43:45;1.98;;;0.60;;
80565;SDS011;69915;54.862;10.730;2023-10-09T02:46:20;1.05;;;0.30;;
80565;SDS011;69915;54.862;10.730;2023-10-09T02:48:54;1.77;;;0.73;;
80565;SDS011;69915;54.862;10.730;2023-10-09T02:51:25;2.00;;;0.57;;
80565;SDS011;69915;54.862;10.730;2023-10-09T02:53:55;2.40;;;0.50;;
80565;SDS011;69915;54.862;10.730;2023-10-09T02:56:22;1.38;;;0.60;;
80565;SDS011;69915;54.862;10.730;2023-10-09T02:59:07;2.03;;;0.63;;
80565;SDS011;69915;54.862;10.730;2023-10-09T03:01:36;1.80;;;0.60;;
80565;SDS011;69915;54.862;10.730;2023-10-09T03:04:03;1.77;;;0.77;;
80565;SDS011;69915;54.862;10.730;2023-10-09T03:06:30;2.63;;;0.55;;
80565;SDS011;69915;54.862;10.730;2023-10-09T03:08:59;0.82;;;0.40;;
80565;SDS011;69915;54.862;10.730;2023-10-09T03:11:25;1.40;;;0.50;;
80565;SDS011;69915;54.862;10.730;2023-10-09T03:13:52;1.63;;;0.55;;
80565;SDS011;69915;54.862;10.730;2023-10-09T03:16:20;1.90;;;0.60;;
80565;SDS011;69915;54.862;10.730;2023-10-09T03:18:46;1.17;;;0.35;;
80565;SDS011;69915;54.862;10.730;2023-10-09T03:21:12;1.83;;;0.80;;
80565;SDS011;69915;54.862;10.730;2023-10-09T03:23:39;2.85;;;0.75;;
80565;SDS011;69915;54.862;10.730;2023-10-09T03:26:09;4.47;;;1.65;;
80565;SDS011;69915;54.862;10.730;2023-10-09T03:28:34;2.22;;;0.65;;
80565;SDS011;69915;54.862;10.730;2023-10-09T03:31:01;3.50;;;0.77;;
80565;SDS011;69915;54.862;10.730;2023-10-09T03:33:28;1.45;;;0.60;;
80565;SDS011;69915;54.862;10.730;2023-10-09T03:38:24;1.52;;;0.43;;
80565;SDS011;69915;54.862;10.730;2023-10-09T03:40:49;2.13;;;0.45;;
80565;SDS011;69915;54.862;10.730;2023-10-09T03:43:15;2.35;;;0.55;;
80565;SDS011;69915;54.862;10.730;2023-10-09T03:45:41;3.63;;;0.50;;
80565;SDS011;69915;54.862;10.730;2023-10-09T03:48:19;1.15;;;0.40;;
80565;SDS011;69915;54.862;10.730;2023-10-09T03:50:51;3.95;;;0.68;;
80565;SDS011;69915;54.862;10.730;2023-10-09T03:53:33;3.00;;;0.55;;
80565;SDS011;69915;54.862;10.730;2023-10-09T03:56:06;1.73;;;0.85;;
80565;SDS011;69915;54.862;10.730;2023-10-09T03:58:40;2.22;;;0.80;;
80565;SDS011;69915;54.862;10.730;2023-10-09T04:01:11;1.73;;;0.75;;
80565;SDS011;69915;54.862;10.730;2023-10-09T04:03:43;1.08;;;0.60;;
80565;SDS011;69915;54.862;10.730;2023-10-09T04:06:09;1.65;;;0.90;;
80565;SDS011;69915;54.862;10.730;2023-10-09T04:08:36;3.30;;;0.90;;
80565;SDS011;69915;54.862;10.730;2023-10-09T04:11:05;4.55;;;0.98;;
80565;SDS011;69915;54.862;10.730;2023-10-09T04:13:42;2.92;;;0.60;;
80565;SDS011;69915;54.862;10.730;2023-10-09T04:16:14;2.63;;;0.68;;
80565;SDS011;69915;54.862;10.730;2023-10-09T04:18:55;2.50;;;0.80;;
80565;SDS011;69915;54.862;10.730;2023-10-09T04:21:22;1.60;;;0.68;;
80565;SDS011;69915;54.862;10.730;2023-10-09T04:24:01;1.33;;;0.60;;
80565;SDS011;69915;54.862;10.730;2023-10-09T04:26:43;4.50;;;0.85;;
80565;SDS011;69915;54.862;10.730;2023-10-09T04:29:16;2.28;;;0.65;;
80565;SDS011;69915;54.862;10.730;2023-10-09T04:32:00;1.27;;;0.47;;
80565;SDS011;69915;54.862;10.730;2023-10-09T04:34:26;2.95;;;0.60;;
80565;SDS011;69915;54.862;10.730;2023-10-09T04:37:03;3.80;;;0.95;;
80565;SDS011;69915;54.862;10.730;2023-10-09T04:39:49;2.72;;;0.77;;
80565;SDS011;69915;54.862;10.730;2023-10-09T04:42:40;1.33;;;0.50;;
80565;SDS011;69915;54.862;10.730;2023-10-09T04:45:23;1.50;;;0.50;;
80565;SDS011;69915;54.862;10.730;2023-10-09T04:48:08;1.85;;;0.65;;
80565;SDS011;69915;54.862;10.730;2023-10-09T04:50:35;1.48;;;0.70;;
80565;SDS011;69915;54.862;10.730;2023-10-09T04:53:01;2.92;;;1.00;;
80565;SDS011;69915;54.862;10.730;2023-10-09T04:55:42;1.38;;;0.65;;
80565;SDS011;69915;54.862;10.730;2023-10-09T04:58:25;0.77;;;0.40;;
80565;SDS011;69915;54.862;10.730;2023-10-09T05:00:51;3.17;;;0.77;;
80565;SDS011;69915;54.862;10.730;2023-10-09T05:03:23;2.30;;;0.80;;
80565;SDS011;69915;54.862;10.730;2023-10-09T05:05:52;1.88;;;0.80;;
80565;SDS011;69915;54.862;10.730;2023-10-09T05:08:24;1.63;;;0.65;;
80565;SDS011;69915;54.862;10.730;2023-10-09T05:10:53;1.23;;;0.57;;
80565;SDS011;69915;54.862;10.730;2023-10-09T05:13:23;1.65;;;0.60;;
80565;SDS011;69915;54.862;10.730;2023-10-09T05:18:30;2.70;;;0.70;;
80565;SDS011;69915;54.862;10.730;2023-10-09T05:21:08;2.10;;;0.80;;
80565;SDS011;69915;54.862;10.730;2023-10-09T05:23:52;2.10;;;0.82;;
80565;SDS011;69915;54.862;10.730;2023-10-09T05:26:36;2.88;;;0.77;;
80565;SDS011;69915;54.862;10.730;2023-10-09T05:31:46;5.75;;;1.13;;
80565;SDS011;69915;54.862;10.730;2023-10-09T05:34:22;2.55;;;0.95;;
80565;SDS011;69915;54.862;10.730;2023-10-09T05:36:58;1.83;;;0.82;;
80565;SDS011;69915;54.862;10.730;2023-10-09T05:39:36;2.10;;;0.85;;
80565;SDS011;69915;54.862;10.730;2023-10-09T05:42:07;3.72;;;1.10;;
80565;SDS011;69915;54.862;10.730;2023-10-09T05:44:42;1.63;;;0.75;;
80565;SDS011;69915;54.862;10.730;2023-10-09T05:47:40;2.45;;;0.80;;
80565;SDS011;69915;54.862;10.730;2023-10-09T05:50:18;2.08;;;0.95;;
80565;SDS011;69915;54.862;10.730;2023-10-09T05:52:54;2.33;;;1.10;;
80565;SDS011;69915;54.862;10.730;2023-10-09T05:55:23;2.08;;;0.80;;
80565;SDS011;69915;54.862;10.730;2023-10-09T05:57:59;4.57;;;1.10;;
80565;SDS011;69915;54.862;10.730;2023-10-09T06:00:43;3.67;;;1.27;;
80565;SDS011;69915;54.862;10.730;2023-10-09T06:03:27;1.70;;;0.73;;
80565;SDS011;69915;54.862;10.730;2023-10-09T06:06:12;2.72;;;0.85;;
80565;SDS011;69915;54.862;10.730;2023-10-09T06:08:57;1.92;;;0.70;;
80565;SDS011;69915;54.862;10.730;2023-10-09T06:11:45;3.67;;;0.88;;
80565;SDS011;69915;54.862;10.730;2023-10-09T06:14:21;3.03;;;0.88;;
80565;SDS011;69915;54.862;10.730;2023-10-09T06:17:11;2.70;;;0.90;;
80565;SDS011;69915;54.862;10.730;2023-10-09T06:19:36;3.65;;;0.82;;
80565;SDS011;69915;54.862;10.730;2023-10-09T06:22:08;2.25;;;1.00;;
80565;SDS011;69915;54.862;10.730;2023-10-09T06:24:54;1.85;;;0.70;;
80565;SDS011;69915;54.862;10.730;2023-10-09T06:27:22;2.83;;;0.80;;
80565;SDS011;69915;54.862;10.730;2023-10-09T06:30:11;3.15;;;0.80;;
80565;SDS011;69915;54.862;10.730;2023-10-09T06:32:49;1.60;;;0.80;;
80565;SDS011;69915;54.862;10.730;2023-10-09T06:35:38;3.70;;;1.08;;
80565;SDS011;69915;54.862;10.730;2023-10-09T06:38:05;6.13;;;1.45;;
80565;SDS011;69915;54.862;10.730;2023-10-09T06:40:47;2.88;;;1.17;;
80565;SDS011;69915;54.862;10.730;2023-10-09T06:43:17;6.43;;;1.85;;
80565;SDS011;69915;54.862;10.730;2023-10-09T06:45:53;3.10;;;0.90;;
80565;SDS011;69915;54.862;10.730;2023-10-09T06:48:23;3.58;;;1.52;;
80565;SDS011;69915;54.862;10.730;2023-10-09T06:53:52;3.13;;;0.88;;
80565;SDS011;69915;54.862;10.730;2023-10-09T06:56:19;3.10;;;0.70;;
80565;SDS011;69915;54.862;10.730;2023-10-09T06:59:00;3.58;;;0.90;;
80565;SDS011;69915;54.862;10.730;2023-10-09T07:01:41;4.80;;;1.00;;
80565;SDS011;69915;54.862;10.730;2023-10-09T07:04:12;1.58;;;0.70;;
80565;SDS011;69915;54.862;10.730;2023-10-09T07:06:48;3.78;;;1.45;;
80565;SDS011;69915;54.862;10.730;2023-10-09T07:09:16;2.13;;;0.82;;
80565;SDS011;69915;54.862;10.730;2023-10-09T07:11:53;2.10;;;0.93;;
80565;SDS011;69915;54.862;10.730;2023-10-09T07:14:22;1.58;;;0.77;;
80565;SDS011;69915;54.862;10.730;2023-10-09T07:16:57;3.03;;;0.70;;
80565;SDS011;69915;54.862;10.730;2023-10-09T07:19:28;1.05;;;0.55;;
80565;SDS011;69915;54.862;10.730;2023-10-09T07:22:05;5.60;;;1.10;;
80565;SDS011;69915;54.862;10.730;2023-10-09T07:24:41;2.42;;;0.93;;
80565;SDS011;69915;54.862;10.730;2023-10-09T07:27:14;4.82;;;1.10;;
80565;SDS011;69915;54.862;10.730;2023-10-09T07:29:42;2.35;;;0.82;;
80565;SDS011;69915;54.862;10.730;2023-10-09T07:32:17;2.95;;;1.33;;
80565;SDS011;69915;54.862;10.730;2023-10-09T07:34:46;1.77;;;0.65;;
80565;SDS011;69915;54.862;10.730;2023-10-09T07:39:58;2.28;;;0.90;;
80565;SDS011;69915;54.862;10.730;2023-10-09T07:42:27;2.25;;;0.80;;
80565;SDS011;69915;54.862;10.730;2023-10-09T07:45:09;1.73;;;0.75;;
80565;SDS011;69915;54.862;10.730;2023-10-09T07:47:47;4.82;;;0.95;;
80565;SDS011;69915;54.862;10.730;2023-10-09T07:50:25;3.05;;;0.90;;
80565;SDS011;69915;54.862;10.730;2023-10-09T07:53:04;5.00;;;0.75;;
80565;SDS011;69915;54.862;10.730;2023-10-09T07:55:49;3.42;;;1.00;;
80565;SDS011;69915;54.862;10.730;2023-10-09T07:58:27;1.20;;;0.82;;
80565;SDS011;69915;54.862;10.730;2023-10-09T08:00:57;2.75;;;0.77;;
80565;SDS011;69915;54.862;10.730;2023-10-09T08:03:23;2.03;;;0.90;;
80565;SDS011;69915;54.862;10.730;2023-10-09T08:05:50;3.33;;;0.82;;
80565;SDS011;69915;54.862;10.730;2023-10-09T08:08:18;2.80;;;0.90;;
80565;SDS011;69915;54.862;10.730;2023-10-09T08:10:59;4.10;;;0.75;;
80565;SDS011;69915;54.862;10.730;2023-10-09T08:13:43;1.48;;;0.73;;
80565;SDS011;69915;54.862;10.730;2023-10-09T08:16:21;2.60;;;0.70;;
80565;SDS011;69915;54.862;10.730;2023-10-09T08:18:49;3.67;;;0.88;;
80565;SDS011;69915;54.862;10.730;2023-10-09T08:21:16;1.38;;;0.50;;
80565;SDS011;69915;54.862;10.730;2023-10-09T08:23:43;1.52;;;0.70;;
80565;SDS011;69915;54.862;10.730;2023-10-09T08:26:13;2.55;;;0.80;;
80565;SDS011;69915;54.862;10.730;2023-10-09T08:28:40;3.83;;;0.80;;
80565;SDS011;69915;54.862;10.730;2023-10-09T08:31:16;3.50;;;0.50;;
80565;SDS011;69915;54.862;10.730;2023-10-09T08:34:00;1.40;;;0.57;;
80565;SDS011;69915;54.862;10.730;2023-10-09T08:36:26;2.35;;;0.55;;
80565;SDS011;69915;54.862;10.730;2023-10-09T08:39:02;2.42;;;1.08;;
80565;SDS011;69915;54.862;10.730;2023-10-09T08:41:42;4.50;;;0.68;;
80565;SDS011;69915;54.862;10.730;2023-10-09T08:44:07;4.18;;;0.93;;
80565;SDS011;69915;54.862;10.730;2023-10-09T08:46:37;2.30;;;0.77;;
80565;SDS011;69915;54.862;10.730;2023-10-09T08:49:04;2.67;;;1.40;;
80565;SDS011;69915;54.862;10.730;2023-10-09T08:51:32;4.53;;;1.10;;
80565;SDS011;69915;54.862;10.730;2023-10-09T08:54:00;3.05;;;0.70;;
80565;SDS011;69915;54.862;10.730;2023-10-09T08:56:26;1.80;;;0.60;;
80565;SDS011;69915;54.862;10.730;2023-10-09T08:59:00;2.08;;;0.82;;
80565;SDS011;69915;54.862;10.730;2023-10-09T09:01:27;3.35;;;0.68;;
80565;SDS011;69915;54.862;10.730;2023-10-09T09:03:57;3.40;;;0.90;;
80565;SDS011;69915;54.862;10.730;2023-10-09T09:06:25;2.88;;;0.82;;
80565;SDS011;69915;54.862;10.730;2023-10-09T09:08:50;4.60;;;0.95;;
80565;SDS011;69915;54.862;10.730;2023-10-09T09:11:24;3.47;;;1.00;;
80565;SDS011;69915;54.862;10.730;2023-10-09T09:16:24;3.83;;;0.85;;
80565;SDS011;69915;54.862;10.730;2023-10-09T09:21:39;2.38;;;0.77;;
80565;SDS011;69915;54.862;10.730;2023-10-09T09:24:10;3.20;;;1.23;;
80565;SDS011;69915;54.862;10.730;2023-10-09T09:26:55;3.05;;;0.68;;
80565;SDS011;69915;54.862;10.730;2023-10-09T09:32:01;6.95;;;1.73;;
80565;SDS011;69915;54.862;10.730;2023-10-09T09:34:44;2.05;;;0.68;;
80565;SDS011;69915;54.862;10.730;2023-10-09T09:37:24;1.90;;;1.00;;
80565;SDS011;69915;54.862;10.730;2023-10-09T09:40:00;2.95;;;0.55;;
80565;SDS011;69915;54.862;10.730;2023-10-09T09:42:36;1.75;;;0.80;;
80565;SDS011;69915;54.862;10.730;2023-10-09T09:45:03;1.80;;;0.70;;
80565;SDS011;69915;54.862;10.730;2023-10-09T09:47:31;3.95;;;0.85;;
80565;SDS011;69915;54.862;10.730;2023-10-09T09:50:00;2.97;;;0.95;;
80565;SDS011;69915;54.862;10.730;2023-10-09T09:52:37;1.90;;;0.65;;
80565;SDS011;69915;54.862;10.730;2023-10-09T09:55:06;3.80;;;0.55;;
80565;SDS011;69915;54.862;10.730;2023-10-09T09:57:39;3.95;;;1.17;;
80565;SDS011;69915;54.862;10.730;2023-10-09T10:00:06;2.35;;;0.80;;
80565;SDS011;69915;54.862;10.730;2023-10-09T10:02:51;3.03;;;0.80;;
80565;SDS011;69915;54.862;10.730;2023-10-09T10:05:21;4.05;;;0.90;;
80565;SDS011;69915;54.862;10.730;2023-10-09T10:07:47;1.42;;;0.60;;
80565;SDS011;69915;54.862;10.730;2023-10-09T10:10:33;2.45;;;0.82;;
80565;SDS011;69915;54.862;10.730;2023-10-09T10:13:02;2.28;;;0.80;;
80565;SDS011;69915;54.862;10.730;2023-10-09T10:21:19;2.08;;;0.60;;
80565;SDS011;69915;54.862;10.730;2023-10-09T10:24:01;2.67;;;0.90;;
80565;SDS011;69915;54.862;10.730;2023-10-09T10:26:35;2.60;;;1.00;;
80565;SDS011;69915;54.862;10.730;2023-10-09T10:29:20;3.25;;;1.08;;
80565;SDS011;69915;54.862;10.730;2023-10-09T10:32:02;3.67;;;0.80;;
80565;SDS011;69915;54.862;10.730;2023-10-09T10:34:51;1.95;;;0.65;;
80565;SDS011;69915;54.862;10.730;2023-10-09T10:40:04;2.38;;;0.85;;
80565;SDS011;69915;54.862;10.730;2023-10-09T10:42:46;2.85;;;0.82;;
80565;SDS011;69915;54.862;10.730;2023-10-09T10:45:34;2.70;;;0.60;;
80565;SDS011;69915;54.862;10.730;2023-10-09T10:48:01;3.10;;;0.68;;
80565;SDS011;69915;54.862;10.730;2023-10-09T10:50:33;2.08;;;0.70;;
80565;SDS011;69915;54.862;10.730;2023-10-09T10:53:11;4.25;;;0.90;;
80565;SDS011;69915;54.862;10.730;2023-10-09T10:55:39;2.15;;;0.70;;
80565;SDS011;69915;54.862;10.730;2023-10-09T10:58:21;7.65;;;1.33;;
80565;SDS011;69915;54.862;10.730;2023-10-09T11:00:56;2.40;;;1.00;;
80565;SDS011;69915;54.862;10.730;2023-10-09T11:03:21;2.30;;;0.90;;
80565;SDS011;69915;54.862;10.730;2023-10-09T11:06:06;2.35;;;0.70;;
80565;SDS011;69915;54.862;10.730;2023-10-09T11:08:49;2.65;;;0.88;;
80565;SDS011;69915;54.862;10.730;2023-10-09T11:11:22;4.43;;;0.90;;
80565;SDS011;69915;54.862;10.730;2023-10-09T11:13:48;1.85;;;0.77;;
80565;SDS011;69915;54.862;10.730;2023-10-09T11:16:24;7.07;;;1.40;;
80565;SDS011;69915;54.862;10.730;2023-10-09T11:19:13;3.20;;;0.90;;
80565;SDS011;69915;54.862;10.730;2023-10-09T11:22:05;2.72;;;0.82;;
80565;SDS011;69915;54.862;10.730;2023-10-09T11:24:30;6.43;;;1.08;;
80565;SDS011;69915;54.862;10.730;2023-10-09T11:27:02;2.13;;;0.85;;
80565;SDS011;69915;54.862;10.730;2023-10-09T11:29:32;2.38;;;0.82;;
80565;SDS011;69915;54.862;10.730;2023-10-09T11:32:08;2.60;;;1.10;;
80565;SDS011;69915;54.862;10.730;2023-10-09T11:34:51;2.40;;;1.08;;
80565;SDS011;69915;54.862;10.730;2023-10-09T11:37:35;3.22;;;0.90;;
80565;SDS011;69915;54.862;10.730;2023-10-09T11:40:04;3.63;;;0.70;;
80565;SDS011;69915;54.862;10.730;2023-10-09T11:42:48;3.75;;;0.93;;
80565;SDS011;69915;54.862;10.730;2023-10-09T11:45:21;4.28;;;1.20;;
80565;SDS011;69915;54.862;10.730;2023-10-09T11:47:50;2.72;;;0.88;;
80565;SDS011;69915;54.862;10.730;2023-10-09T11:53:41;3.20;;;0.88;;
80565;SDS011;69915;54.862;10.730;2023-10-09T11:56:21;2.17;;;1.02;;
80565;SDS011;69915;54.862;10.730;2023-10-09T11:58:47;2.95;;;0.95;;
80565;SDS011;69915;54.862;10.730;2023-10-09T12:01:15;2.78;;;1.02;;
80565;SDS011;69915;54.862;10.730;2023-10-09T12:03:48;2.58;;;0.80;;
80565;SDS011;69915;54.862;10.730;2023-10-09T12:06:19;3.85;;;1.20;;
80565;SDS011;69915;54.862;10.730;2023-10-09T12:08:48;4.63;;;1.00;;
80565;SDS011;69915;54.862;10.730;2023-10-09T12:11:14;3.25;;;0.80;;
80565;SDS011;69915;54.862;10.730;2023-10-09T12:13:47;2.03;;;0.98;;
80565;SDS011;69915;54.862;10.730;2023-10-09T12:16:13;3.55;;;1.08;;
80565;SDS011;69915;54.862;10.730;2023-10-09T12:18:40;7.43;;;1.52;;
80565;SDS011;69915;54.862;10.730;2023-10-09T12:21:08;5.25;;;1.05;;
80565;SDS011;69915;54.862;10.730;2023-10-09T12:23:40;3.22;;;1.25;;
80565;SDS011;69915;54.862;10.730;2023-10-09T12:26:08;3.15;;;1.17;;
80565;SDS011;69915;54.862;10.730;2023-10-09T12:28:39;3.72;;;1.17;;
80565;SDS011;69915;54.862;10.730;2023-10-09T12:31:11;3.70;;;1.00;;
80565;SDS011;69915;54.862;10.730;2023-10-09T12:33:40;3.75;;;1.05;;
80565;SDS011;69915;54.862;10.730;2023-10-09T12:36:05;4.32;;;1.52;;
80565;SDS011;69915;54.862;10.730;2023-10-09T12:38:31;2.70;;;0.90;;
80565;SDS011;69915;54.862;10.730;2023-10-09T12:43:56;3.88;;;1.38;;
80565;SDS011;69915;54.862;10.730;2023-10-09T12:46:25;3.35;;;1.73;;
80565;SDS011;69915;54.862;10.730;2023-10-09T12:48:53;4.55;;;1.17;;
80565;SDS011;69915;54.862;10.730;2023-10-09T12:51:20;2.55;;;0.98;;
80565;SDS011;69915;54.862;10.730;2023-10-09T12:53:51;5.30;;;1.05;;
80565;SDS011;69915;54.862;10.730;2023-10-09T12:56:22;3.20;;;0.88;;
80565;SDS011;69915;54.862;10.730;2023-10-09T12:58:57;3.78;;;1.52;;
80565;SDS011;69915;54.862;10.730;2023-10-09T13:01:27;3.47;;;1.02;;
80565;SDS011;69915;54.862;10.730;2023-10-09T13:04:00;3.25;;;1.20;;
80565;SDS011;69915;54.862;10.730;2023-10-09T13:06:26;4.10;;;1.30;;
80565;SDS011;69915;54.862;10.730;2023-10-09T13:08:52;2.53;;;1.05;;
80565;SDS011;69915;54.862;10.730;2023-10-09T13:11:21;5.38;;;1.10;;
80565;SDS011;69915;54.862;10.730;2023-10-09T13:13:47;4.72;;;1.33;;
80565;SDS011;69915;54.862;10.730;2023-10-09T13:16:21;2.05;;;0.95;;
80565;SDS011;69915;54.862;10.730;2023-10-09T13:18:50;2.92;;;1.15;;
80565;SDS011;69915;54.862;10.730;2023-10-09T13:21:17;4.75;;;1.48;;
80565;SDS011;69915;54.862;10.730;2023-10-09T13:23:43;5.00;;;1.58;;
80565;SDS011;69915;54.862;10.730;2023-10-09T13:26:15;5.70;;;1.25;;
80565;SDS011;69915;54.862;10.730;2023-10-09T13:28:47;4.32;;;1.20;;
80565;SDS011;69915;54.862;10.730;2023-10-09T13:31:14;4.43;;;1.17;;
80565;SDS011;69915;54.862;10.730;2023-10-09T13:33:43;3.60;;;0.90;;
80565;SDS011;69915;54.862;10.730;2023-10-09T13:36:10;4.28;;;1.27;;
80565;SDS011;69915;54.862;10.730;2023-10-09T13:38:52;2.22;;;1.20;;
80565;SDS011;69915;54.862;10.730;2023-10-09T13:41:19;3.00;;;1.15;;
80565;SDS011;69915;54.862;10.730;2023-10-09T13:43:44;3.80;;;1.20;;
80565;SDS011;69915;54.862;10.730;2023-10-09T13:46:10;4.68;;;1.23;;
80565;SDS011;69915;54.862;10.730;2023-10-09T13:48:42;3.25;;;1.23;;
80565;SDS011;69915;54.862;10.730;2023-10-09T13:51:12;2.78;;;1.50;;
80565;SDS011;69915;54.862;10.730;2023-10-09T13:53:47;4.18;;;1.70;;
80565;SDS011;69915;54.862;10.730;2023-10-09T13:56:13;3.42;;;1.45;;
80565;SDS011;69915;54.862;10.730;2023-10-09T13:58:43;3.50;;;1.50;;
80565;SDS011;69915;54.862;10.730;2023-10-09T14:01:09;2.53;;;1.02;;
80565;SDS011;69915;54.862;10.730;2023-10-09T14:03:34;4.40;;;1.30;;
80565;SDS011;69915;54.862;10.730;2023-10-09T14:06:00;5.63;;;1.67;;
80565;SDS011;69915;54.862;10.730;2023-10-09T14:08:35;2.85;;;1.48;;
80565;SDS011;69915;54.862;10.730;2023-10-09T14:11:07;4.50;;;1.50;;
80565;SDS011;69915;54.862;10.730;2023-10-09T14:13:38;4.28;;;1.02;;
80565;SDS011;69915;54.862;10.730;2023-10-09T14:16:07;4.82;;;1.50;;
80565;SDS011;69915;54.862;10.730;2023-10-09T14:18:49;3.80;;;1.63;;
80565;SDS011;69915;54.862;10.730;2023-10-09T14:21:22;2.95;;;1.25;;
80565;SDS011;69915;54.862;10.730;2023-10-09T14:23:51;3.28;;;1.30;;
80565;SDS011;69915;54.862;10.730;2023-10-09T14:26:22;6.47;;;1.70;;
80565;SDS011;69915;54.862;10.730;2023-10-09T14:28:50;2.55;;;1.17;;
80565;SDS011;69915;54.862;10.730;2023-10-09T14:31:17;4.43;;;1.45;;
80565;SDS011;69915;54.862;10.730;2023-10-09T14:33:47;2.28;;;1.27;;
80565;SDS011;69915;54.862;10.730;2023-10-09T14:36:18;2.72;;;1.20;;
80565;SDS011;69915;54.862;10.730;2023-10-09T14:38:44;5.28;;;1.25;;
80565;SDS011;69915;54.862;10.730;2023-10-09T14:41:12;3.45;;;2.00;;
80565;SDS011;69915;54.862;10.730;2023-10-09T14:43:38;3.33;;;1.50;;
80565;SDS011;69915;54.862;10.730;2023-10-09T14:46:04;2.35;;;1.17;;
80565;SDS011;69915;54.862;10.730;2023-10-09T14:48:36;4.70;;;1.52;;
80565;SDS011;69915;54.862;10.730;2023-10-09T14:51:03;4.63;;;1.55;;
80565;SDS011;69915;54.862;10.730;2023-10-09T14:53:35;6.18;;;1.70;;
80565;SDS011;69915;54.862;10.730;2023-10-09T14:56:00;2.45;;;1.25;;
80565;SDS011;69915;54.862;10.730;2023-10-09T14:58:29;7.30;;;1.85;;
80565;SDS011;69915;54.862;10.730;2023-10-09T15:00:57;5.32;;;1.45;;
80565;SDS011;69915;54.862;10.730;2023-10-09T15:03:34;4.60;;;1.30;;
80565;SDS011;69915;54.862;10.730;2023-10-09T15:06:02;2.65;;;1.10;;
80565;SDS011;69915;54.862;10.730;2023-10-09T15:08:28;3.67;;;1.80;;
80565;SDS011;69915;54.862;10.730;2023-10-09T15:10:54;4.00;;;1.65;;
80565;SDS011;69915;54.862;10.730;2023-10-09T15:13:24;4.78;;;1.58;;
80565;SDS011;69915;54.862;10.730;2023-10-09T15:15:53;2.42;;;1.30;;
80565;SDS011;69915;54.862;10.730;2023-10-09T15:18:19;3.17;;;1.30;;
80565;SDS011;69915;54.862;10.730;2023-10-09T15:20:46;2.40;;;1.13;;
80565;SDS011;69915;54.862;10.730;2023-10-09T15:23:13;4.53;;;1.70;;
80565;SDS011;69915;54.862;10.730;2023-10-09T15:25:39;3.35;;;1.45;;
80565;SDS011;69915;54.862;10.730;2023-10-09T15:28:04;2.92;;;1.17;;
80565;SDS011;69915;54.862;10.730;2023-10-09T15:30:32;3.75;;;1.70;;
80565;SDS011;69915;54.862;10.730;2023-10-09T15:32:58;5.70;;;1.55;;
80565;SDS011;69915;54.862;10.730;2023-10-09T15:35:24;5.15;;;1.45;;
80565;SDS011;69915;54.862;10.730;2023-10-09T15:37:49;4.63;;;1.75;;
80565;SDS011;69915;54.862;10.730;2023-10-09T15:40:18;4.35;;;1.75;;
80565;SDS011;69915;54.862;10.730;2023-10-09T15:42:49;3.83;;;1.50;;
80565;SDS011;69915;54.862;10.730;2023-10-09T15:45:15;4.07;;;1.90;;
80565;SDS011;69915;54.862;10.730;2023-10-09T15:47:41;3.80;;;1.80;;
80565;SDS011;69915;54.862;10.730;2023-10-09T15:50:07;2.53;;;1.48;;